»·PEaware :: N1367R MMMY-KCXO

N1367R :: MMMY-KCXO

FLIGHT INFORMATION

Flight Status: Arrived
Operator: Privately registered:
United States
More flights under this callsign
Pilot: Chase C. (10526)
Aircraft: Unknown
(E50P)
More flights by this aircraft type
Origin: MMMY Gen Mariano Escobedo Intl
Mexico
Destination: KCXO Montgomery Co
United States
More flights between these airports :: More routes between these airports
Route: OVEM4 MTY J29 PSX
File this flight plan on PilotEdge
Remarks:
Altitude:
(Current/Filed)
41,000ft
Speed:
(Current/Filed)
400kts
Departed: 11-Sep-18 07:29 PM
Arrived: 11-Sep-18 08:47 PM
Distance/Time
Traveled:
370nm/1:18
Distance/Time
To Go:
Arrived

Flight Plot

Page will automatically refresh every two minutes.

Flight plan parsing failed; only flown route is shown


Map Options




Map Legend


Flown Route
Filed Route
Departure Airport
Arrival Airport
Navaid (VOR, NDB)
Fix

Horizontal Profiles

Position Reports

Time Latitude Longitude Heading Altitude Ground
Speed
11-Sep-18 19:16 25.775858 -100.110643 247 1282ft 0kts
11-Sep-18 19:17 25.775858 -100.110643 247 1282ft 0kts
11-Sep-18 19:18 25.775858 -100.110643 247 1282ft 0kts
11-Sep-18 19:19 25.775858 -100.110643 247 1282ft 0kts
11-Sep-18 19:20 25.775858 -100.110643 247 1282ft 0kts
11-Sep-18 19:21 25.775858 -100.110643 247 1282ft 0kts
11-Sep-18 19:22 25.775858 -100.110643 247 1282ft 0kts
11-Sep-18 19:23 25.775858 -100.110643 247 1282ft 0kts
11-Sep-18 19:24 25.775982 -100.110723 27 1282ft 5kts
11-Sep-18 19:25 25.776942 -100.111107 301 1282ft 9kts
11-Sep-18 19:26 25.778905 -100.111630 302 1282ft 8kts
11-Sep-18 19:27 25.780134 -100.113803 294 1282ft 17kts
11-Sep-18 19:28 25.781608 -100.116574 298 1282ft 9kts
11-Sep-18 19:29 25.783156 -100.117773 29 1282ft 8kts
11-Sep-18 19:30 25.783949 -100.116885 120 1282ft 0kts
11-Sep-18 19:31 25.782859 -100.114885 120 1282ft 81kts
11-Sep-18 19:32 25.763071 -100.077820 108 3606ft 240kts
11-Sep-18 19:33 25.789018 -100.035562 21 8395ft 236kts
11-Sep-18 19:34 25.823857 -99.999445 44 12293ft 252kts
11-Sep-18 19:35 25.862917 -99.953003 44 16589ft 269kts
11-Sep-18 19:36 25.908649 -99.898389 44 20629ft 286kts
11-Sep-18 19:37 25.955684 -99.842147 43 22797ft 299kts
11-Sep-18 19:38 26.003052 -99.785397 43 24698ft 309kts
11-Sep-18 19:39 26.050955 -99.727927 43 26341ft 318kts
11-Sep-18 19:40 26.093578 -99.676732 43 27617ft 325kts
11-Sep-18 19:41 26.141140 -99.619535 43 28914ft 333kts
11-Sep-18 19:42 26.190108 -99.560566 43 30087ft 340kts
11-Sep-18 19:43 26.243218 -99.496517 43 31213ft 347kts
11-Sep-18 19:44 26.295200 -99.433739 43 32193ft 354kts
11-Sep-18 19:45 26.343572 -99.377669 34 33003ft 356kts
11-Sep-18 19:46 26.406883 -99.318257 36 33873ft 362kts
11-Sep-18 19:47 26.475409 -99.253742 36 34735ft 367kts
11-Sep-18 19:48 26.543708 -99.189332 36 35524ft 375kts
11-Sep-18 19:49 26.608660 -99.128004 36 37425ft 386kts
11-Sep-18 19:50 26.671574 -99.068498 36 38879ft 398kts
11-Sep-18 19:51 26.742969 -99.000836 36 40280ft 410kts
11-Sep-18 19:52 26.800547 -98.946237 36 41046ft 425kts
11-Sep-18 19:53 26.850975 -98.898332 36 41065ft 439kts
11-Sep-18 19:54 26.915482 -98.836951 37 41066ft 455kts
11-Sep-18 19:55 27.003193 -98.753333 37 41065ft 470kts
11-Sep-18 19:56 27.092978 -98.667559 37 41064ft 479kts
11-Sep-18 19:57 27.181765 -98.582558 37 41067ft 482kts
11-Sep-18 19:58 27.263717 -98.503917 37 40319ft 476kts
11-Sep-18 19:59 27.352981 -98.418096 36 39369ft 454kts
11-Sep-18 20:00 27.428764 -98.345103 37 38537ft 441kts
11-Sep-18 20:01 27.507134 -98.269470 37 37630ft 432kts
11-Sep-18 20:02 27.589767 -98.189563 37 36658ft 426kts
11-Sep-18 20:03 27.672777 -98.109125 37 35670ft 421kts
11-Sep-18 20:04 27.745312 -98.038728 37 34809ft 428kts
11-Sep-18 20:05 27.801753 -97.983853 37 34164ft 440kts
11-Sep-18 20:06 27.859369 -97.927736 37 33518ft 448kts
11-Sep-18 20:07 27.917755 -97.870785 37 32870ft 452kts
11-Sep-18 20:08 27.994837 -97.795591 37 32022ft 455kts
11-Sep-18 20:09 28.067895 -97.725355 36 31139ft 449kts
11-Sep-18 20:10 28.151803 -97.645157 37 30016ft 437kts
11-Sep-18 20:11 28.235638 -97.564821 37 28876ft 429kts
11-Sep-18 20:12 28.317033 -97.486677 37 27755ft 424kts
11-Sep-18 20:13 28.396770 -97.409800 37 26643ft 420kts
11-Sep-18 20:14 28.470342 -97.338294 38 25378ft 399kts
11-Sep-18 20:15 28.541108 -97.269153 38 24033ft 381kts
11-Sep-18 20:16 28.610313 -97.201194 38 22671ft 370kts
11-Sep-18 20:17 28.678424 -97.134662 38 21311ft 366kts
11-Sep-18 20:18 28.734245 -97.079760 38 20193ft 364kts
11-Sep-18 20:19 28.796597 -97.018132 38 19114ft 357kts
11-Sep-18 20:20 28.864129 -96.951463 38 17971ft 356kts
11-Sep-18 20:21 28.925585 -96.890975 38 16948ft 373kts
11-Sep-18 20:22 28.989423 -96.828596 38 15970ft 397kts
11-Sep-18 20:23 29.072378 -96.748163 38 14843ft 448kts
11-Sep-18 20:24 29.157172 -96.666249 38 13682ft 424kts
11-Sep-18 20:25 29.222453 -96.603224 38 13005ft 398kts
11-Sep-18 20:26 29.287076 -96.540870 38 13002ft 400kts
11-Sep-18 20:27 29.368291 -96.463236 38 13000ft 429kts
11-Sep-18 20:28 29.453750 -96.384030 37 12999ft 438kts
11-Sep-18 20:29 29.532913 -96.310766 37 12998ft 441kts
11-Sep-18 20:30 29.613748 -96.236395 37 12997ft 442kts
11-Sep-18 20:31 29.681670 -96.174088 37 12997ft 442kts
11-Sep-18 20:32 29.766186 -96.090866 47 13000ft 443kts
11-Sep-18 20:33 29.828909 -96.019473 43 12997ft 443kts
11-Sep-18 20:34 29.891884 -95.947411 43 12540ft 409kts
11-Sep-18 20:35 29.955985 -95.873913 43 11714ft 378kts
11-Sep-18 20:36 29.998092 -95.825556 43 11136ft 348kts
11-Sep-18 20:37 30.056282 -95.758633 43 10235ft 310kts
11-Sep-18 20:38 30.103418 -95.704339 43 9436ft 281kts
11-Sep-18 20:39 30.148640 -95.652171 43 8611ft 265kts
11-Sep-18 20:40 30.186875 -95.608005 43 7890ft 259kts
11-Sep-18 20:41 30.225139 -95.563735 43 7158ft 256kts
11-Sep-18 20:42 30.270541 -95.511212 43 6282ft 254kts
11-Sep-18 20:43 30.308257 -95.467446 43 5479ft 253kts
11-Sep-18 20:44 30.347443 -95.422006 44 4238ft 242kts
11-Sep-18 20:45 30.366103 -95.376241 111 2901ft 142kts
11-Sep-18 20:46 30.338622 -95.363497 197 1771ft 134kts
11-Sep-18 20:47 30.329357 -95.388157 294 1115ft 122kts
11-Sep-18 20:48 30.347357 -95.408308 327 256ft 83kts
11-Sep-18 20:49 30.349775 -95.410204 141 252ft 36kts
11-Sep-18 20:50 30.347325 -95.409840 144 252ft 1kts

Navigation Log

Ident Type
Flight plan parsing failed, navigation log unavailable